Latest Weather Observations for Griffith

IDN60801

Issued at 11:05 pm EDT Friday 31 October 2014 (issued every 30 minutes, with the page automatically refreshed every 10 minutes)

About weather observations | Map of weather stations | Latest weather observations for NSW | Other Formats
Station Details ID: 075041 Name: GRIFFITH AIRPORT AWS Lat: -34.25 Lon: 146.07 Height: 134.0 m
Data from the previous 72 hours. | See also: Recent months at Griffith
Date/Time
EDT
Temp
°C
App
Temp
°C
Dew
Point
Rel
Hum
%
Delta-T
°C
Wind Press
QNH
hPa
Press
MSL
hPa
Rain
since 9 am
mm
Dir
 
Spd
km/h
Gust
km/h
Spd
kts
Gust
kts
31/11:00pm 27.5 22.9 -1.4 15 13.4 NNW 13 19 7 10 1003.1 1002.8 0.0
31/10:30pm 28.9 23.4 -2.3 13 14.3 N 17 20 9 11 1003.1 1002.8 0.0
31/10:00pm 28.8 22.7 -2.3 13 14.3 N 20 24 11 13 1003.3 1003.1 0.0
31/09:30pm 28.4 22.8 -2.6 13 14.1 N 17 20 9 11 1003.3 1003.1 0.0
31/09:00pm 27.8 22.3 -2.1 14 13.7 N 17 20 9 11 1003.2 1003.0 0.0
31/08:30pm 27.8 22.9 -3.1 13 13.8 N 13 15 7 8 1003.2 1003.0 0.0
31/08:00pm 28.2 23.0 -2.8 13 14.0 N 15 17 8 9 1003.1 1002.8 0.0
31/07:30pm 31.5 25.4 -3.8 10 16.1 N 19 26 10 14 1003.1 1002.8 0.0
31/07:00pm 32.8 26.8 -2.8 10 16.7 N 19 24 10 13 1003.1 1002.8 0.0
31/06:30pm 32.7 27.9 -2.9 10 16.6 NNW 13 19 7 10 1003.4 1003.2 0.0
31/06:00pm 32.7 26.6 -4.3 9 16.9 NW 19 24 10 13 1003.6 1003.4 0.0
31/05:30pm 33.1 26.0 -4.0 9 17.0 NW 24 35 13 19 1003.9 1003.7 0.0
31/05:00pm 33.7 26.1 -5.1 8 17.6 NNW 26 37 14 20 1004.1 1003.9 0.0
31/04:30pm 33.7 27.1 -3.5 9 17.3 NW 22 32 12 17 1004.6 1004.4 0.0
31/04:00pm 33.8 27.2 -3.5 9 17.4 NW 22 33 12 18 1004.9 1004.7 0.0
31/03:30pm 33.9 25.2 -4.9 8 17.7 NNW 32 44 17 24 1005.2 1005.0 0.0
31/03:00pm 34.6 26.7 -4.4 8 18.0 NNW 28 41 15 22 1005.4 1005.2 0.0
31/02:30pm 35.1 27.5 -2.5 9 17.9 NW 28 39 15 21 1005.8 1005.6 0.0
31/02:00pm 34.1 27.1 -3.2 9 17.5 NW 24 33 13 18 1006.2 1006.0 0.0
31/01:30pm 34.0 25.9 -3.3 9 17.4 N 30 35 16 19 1006.6 1006.4 0.0
31/01:00pm 34.2 26.9 -3.2 9 17.6 NW 26 39 14 21 1007.0 1006.8 0.0
31/12:30pm 34.1 25.6 -3.2 9 17.5 NNW 32 43 17 23 1007.6 1007.4 0.0
31/12:00pm 34.6 27.5 -1.4 10 17.5 NNW 26 35 14 19 1008.2 1007.9 0.0
31/11:30am 32.9 24.9 -2.7 10 16.7 NNW 30 39 16 21 1008.6 1008.3 0.0
31/11:19am 33.4 25.8 -2.3 10 16.9 NNW 28 46 15 25 1008.7 1008.4 0.0
31/11:00am 33.2 27.2 -1.2 11 16.6 NNW 20 32 11 17 1009.1 1008.8 0.0
31/10:30am 30.9 25.3 1.3 15 14.6 NW 20 30 11 16 1009.8 1009.6 0.0
31/10:00am 30.1 24.6 0.6 15 14.3 NNW 19 28 10 15 1010.1 1009.9 0.0
31/09:30am 27.7 23.7 2.7 20 12.4 ENE 13 19 7 10 1010.5 1010.3 0.0
31/09:00am 24.9 20.4 4.1 26 10.4 E 17 20 9 11 1010.7 1010.5 0.0
31/08:30am 22.7 17.6 4.2 30 9.1 E 20 26 11 14 1010.7 1010.5 0.0
31/08:00am 19.6 14.5 4.1 36 7.5 E 20 24 11 13 1010.6 1010.4 0.0
31/07:30am 19.4 14.2 3.6 35 7.5 E 20 24 11 13 1010.7 1010.5 0.0
31/07:00am 19.7 14.8 1.7 30 8.3 ESE 17 20 9 11 1010.9 1010.7 0.0
31/06:30am 18.9 15.7 1.0 30 8.0 SE 7 11 4 6 1010.9 1010.7 0.0
31/06:00am 18.7 14.5 1.7 32 7.7 SSE 13 20 7 11 1010.6 1010.4 0.0
31/05:30am 18.2 13.3 2.1 34 7.4 ESE 17 20 9 11 1010.0 1009.8 0.0
31/05:00am 16.2 11.8 4.6 46 5.5 ESE 17 17 9 9 1009.7 1009.5 0.0
31/04:30am 17.1 12.5 3.8 41 6.2 ESE 17 19 9 10 1009.6 1009.4 0.0
31/04:00am 17.2 12.5 3.1 39 6.5 ESE 17 17 9 9 1010.0 1009.8 0.0
31/03:30am 16.9 12.8 2.5 38 6.6 ESE 13 17 7 9 1010.3 1010.1 0.0
31/03:00am 18.7 15.2 3.3 36 7.3 ESE 11 13 6 7 1010.4 1010.2 0.0
31/02:30am 17.3 13.4 3.2 39 6.5 ESE 13 15 7 8 1010.4 1010.2 0.0
31/02:00am 16.8 13.6 3.1 40 6.3 ESE 9 13 5 7 1011.1 1010.9 0.0
31/01:30am 17.0 13.7 2.6 38 6.6 ESE 9 11 5 6 1011.6 1011.4 0.0
31/01:00am 19.3 15.6 2.6 33 7.8 SE 11 13 6 7 1011.8 1011.6 0.0
31/12:30am 20.8 16.3 2.1 29 8.7 SE 15 17 8 9 1012.0 1011.8 0.0
31/12:00am 23.3 19.3 2.7 26 9.9 SE 13 17 7 9 1012.1 1011.9 0.0
 
Date/Time
EDT
Temp
°C
App
Temp
°C
Dew
Point
Rel
Hum
%
Delta-T
°C
Wind Press
QNH
hPa
Press
MSL
hPa
Rain
since 9 am
mm
Dir
 
Spd
km/h
Gust
km/h
Spd
kts
Gust
kts
30/11:30pm 20.0 16.0 2.8 32 8.1 SE 13 15 7 8 1012.1 1011.9 0.0
30/11:00pm 21.1 17.3 3.8 32 8.4 SE 13 15 7 8 1012.0 1011.8 0.0
30/10:30pm 22.8 19.0 3.9 29 9.3 SE 13 17 7 9 1012.0 1011.8 0.0
30/10:00pm 21.2 17.2 3.0 30 8.7 ESE 13 15 7 8 1011.8 1011.6 0.0
30/09:30pm 23.8 20.2 0.8 22 10.7 SSE 9 11 5 6 1011.6 1011.4 0.0
30/09:00pm 23.9 20.3 2.7 25 10.2 S 11 13 6 7 1011.4 1011.2 0.0
30/08:30pm 23.5 20.7 1.8 24 10.3 S 6 7 3 4 1011.3 1011.1 0.0
30/08:00pm 25.3 22.5 2.1 22 11.2 SSW 6 7 3 4 1011.1 1010.9 0.0
30/07:30pm 29.0 24.9 2.3 18 13.3 SW 13 17 7 9 1010.9 1010.7 0.0
30/07:00pm 30.7 25.7 1.1 15 14.6 SW 17 20 9 11 1010.9 1010.7 0.0
30/06:30pm 31.5 26.6 -0.2 13 15.3 WSW 15 20 8 11 1010.8 1010.6 0.0
30/06:00pm 31.9 26.1 0.1 13 15.5 W 20 32 11 17 1010.8 1010.6 0.0
30/05:30pm 32.1 26.0 0.2 13 15.6 WSW 22 30 12 16 1010.8 1010.6 0.0
30/05:00pm 32.0 24.7 0.2 13 15.6 W 28 43 15 23 1010.8 1010.6 0.0
30/04:30pm 32.1 26.0 0.2 13 15.6 W 22 32 12 17 1011.1 1010.9 0.0
30/04:00pm 31.6 25.0 -0.1 13 15.4 W 24 30 13 16 1011.5 1011.3 0.0
30/03:30pm 31.8 25.0 1.0 14 15.2 WSW 26 39 14 21 1011.8 1011.6 0.0
30/03:00pm 31.8 25.4 1.0 14 15.2 WSW 24 35 13 19 1012.2 1012.0 0.0
30/02:30pm 31.4 26.5 1.7 15 14.8 WSW 17 43 9 23 1012.8 1012.6 0.0
30/02:00pm 30.8 25.3 2.1 16 14.4 WSW 20 22 11 12 1013.1 1012.9 0.0
30/01:30pm 31.0 25.2 2.3 16 14.4 W 22 32 12 17 1013.5 1013.3 0.0
30/01:00pm 29.0 22.7 1.5 17 13.5 W 24 33 13 18 1014.0 1013.8 0.0
30/12:30pm 29.7 24.4 2.9 18 13.5 W 20 33 11 18 1014.3 1014.1 0.0
30/12:00pm 29.5 23.4 2.7 18 13.4 WNW 24 35 13 19 1014.6 1014.4 0.0
30/11:30am 28.6 23.4 2.7 19 12.9 WSW 19 30 10 16 1014.9 1014.7 0.0
30/11:00am 27.3 22.1 2.4 20 12.2 NW 19 26 10 14 1015.0 1014.8 0.0
30/10:30am 26.1 22.5 2.7 22 11.5 NNW 11 19 6 10 1015.1 1014.9 0.0
30/10:00am 25.9 22.5 3.8 24 11.0 NNW 11 19 6 10 1015.3 1015.1 0.0
30/09:30am 24.2 20.5 4.6 28 9.8 NNW 13 17 7 9 1015.5 1015.3 0.0
30/09:00am 22.2 19.3 4.7 32 8.7 NNW 9 13 5 7 1015.6 1015.4 0.0
30/08:30am 20.1 17.1 4.2 35 7.7 N 9 11 5 6 1015.6 1015.4 0.0
30/08:00am 15.7 14.2 5.0 49 5.1 W 2 6 1 3 1015.4 1015.2 0.0
30/07:30am 14.6 13.4 4.6 51 4.7 CALM 0 0 0 0 1015.1 1014.9 0.0
30/07:00am 15.1 12.7 4.2 48 5.1 ENE 6 6 3 3 1014.8 1014.6 0.0
30/06:30am 13.8 10.8 3.9 51 4.5 ENE 9 13 5 7 1014.6 1014.4 0.0
30/06:00am 12.7 9.6 3.6 54 4.1 E 9 9 5 5 1014.6 1014.4 0.0
30/05:30am 12.3 11.0 4.0 57 3.8 CALM 0 0 0 0 1014.5 1014.3 0.0
30/05:00am 12.9 11.6 4.3 56 3.9 CALM 0 0 0 0 1014.4 1014.2 0.0
30/04:30am 12.5 11.1 3.7 55 4.0 CALM 0 0 0 0 1014.4 1014.2 0.0
30/04:00am 12.7 11.3 3.4 53 4.2 CALM 0 0 0 0 1014.4 1014.2 0.0
30/03:30am 12.5 11.1 3.5 54 4.0 CALM 0 0 0 0 1014.5 1014.3 0.0
30/03:00am 12.8 11.4 3.7 54 4.1 CALM 0 0 0 0 1014.6 1014.4 0.0
30/02:30am 12.5 11.0 3.2 53 4.1 CALM 0 0 0 0 1014.5 1014.3 0.0
30/02:00am 12.3 10.5 3.3 54 4.0 SW 2 7 1 4 1014.7 1014.5 0.0
30/01:30am 13.8 11.2 4.1 52 4.5 SSW 7 11 4 6 1014.8 1014.6 0.0
30/01:00am 13.7 11.2 3.8 51 4.5 SW 6 7 3 4 1015.1 1014.9 0.0
30/12:30am 13.6 12.2 3.4 50 4.6 CALM 0 0 0 0 1015.3 1015.1 0.0
30/12:00am 14.3 12.9 3.7 49 4.8 CALM 0 0 0 0 1015.5 1015.3 0.0
 
Date/Time
EDT
Temp
°C
App
Temp
°C
Dew
Point
Rel
Hum
%
Delta-T
°C
Wind Press
QNH
hPa
Press
MSL
hPa
Rain
since 9 am
mm
Dir
 
Spd
km/h
Gust
km/h
Spd
kts
Gust
kts
29/11:30pm 14.6 13.2 3.4 47 5.1 CALM 0 0 0 0 1015.8 1015.5 0.0
29/11:00pm 15.5 14.1 3.3 44 5.6 CALM 0 0 0 0 1016.0 1015.8 0.0
29/10:30pm 16.3 14.9 3.7 43 5.9 CALM 0 0 0 0 1015.9 1015.6 0.0
29/10:00pm 16.4 14.9 2.8 40 6.2 CALM 0 0 0 0 1015.9 1015.6 0.0
29/09:30pm 16.6 15.0 2.6 39 6.4 CALM 0 0 0 0 1015.8 1015.5 0.0
29/09:00pm 17.5 15.9 2.3 36 6.9 CALM 0 0 0 0 1015.5 1015.3 0.0
29/08:30pm 18.7 17.0 2.1 33 7.6 CALM 0 0 0 0 1015.4 1015.2 0.0
29/08:00pm 21.2 19.2 2.5 29 8.8 SSW 2 6 1 3 1015.1 1014.9 0.0
29/07:30pm 24.3 21.1 3.0 25 10.4 SW 9 13 5 7 1015.0 1014.8 0.0
29/07:00pm 25.4 21.9 3.4 24 10.9 WSW 11 17 6 9 1014.8 1014.6 0.0
29/06:30pm 25.8 21.8 3.1 23 11.2 W 13 19 7 10 1014.8 1014.6 0.0
29/06:00pm 25.8 21.1 3.1 23 11.2 SSW 17 20 9 11 1014.8 1014.6 0.0
29/05:30pm 25.9 21.2 3.2 23 11.2 W 17 24 9 13 1014.8 1014.6 0.0
29/05:00pm 25.6 21.2 2.9 23 11.1 W 15 20 8 11 1014.9 1014.7 0.0
29/04:30pm 25.4 20.9 4.0 25 10.7 NW 17 22 9 12 1015.1 1014.9 0.0
29/04:00pm 25.6 20.6 3.5 24 11.0 SW 19 28 10 15 1015.3 1015.1 0.0
29/03:30pm 25.7 21.6 4.2 25 10.8 W 15 26 8 14 1015.8 1015.5 0.0
29/03:00pm 24.2 20.5 4.6 28 9.8 W 13 24 7 13 1016.3 1016.1 0.0
29/02:30pm 23.5 19.3 4.0 28 9.6 SSW 15 20 8 11 1016.8 1016.6 0.0
29/02:00pm 23.9 19.4 4.3 28 9.7 WSW 17 28 9 15 1017.4 1017.2 0.0
29/01:30pm 22.7 19.0 4.2 30 9.1 W 13 22 7 12 1017.8 1017.6 0.0
29/01:00pm 22.5 18.7 4.1 30 9.0 W 13 20 7 11 1018.2 1018.0 0.0
29/12:30pm 21.6 18.2 4.2 32 8.5 SW 11 20 6 11 1018.4 1018.2 0.0
29/12:00pm 20.8 17.5 4.4 34 8.0 SW 11 19 6 10 1018.9 1018.7 0.0
29/11:30am 20.3 17.0 4.4 35 7.7 SSW 11 19 6 10 1019.2 1019.0 0.0
29/11:00am 19.5 17.0 4.8 38 7.1 SSE 7 19 4 10 1019.5 1019.3 0.0
29/10:30am 18.5 15.2 4.7 40 6.7 S 11 17 6 9 1019.6 1019.4 0.0
29/10:00am 18.2 14.6 5.1 42 6.3 S 13 20 7 11 1019.7 1019.5 0.0
29/09:30am 16.8 12.7 4.5 44 5.8 S 15 20 8 11 1019.8 1019.6 0.0
29/09:00am 16.2 11.7 4.3 45 5.6 SE 17 20 9 11 1019.9 1019.7 0.0
29/08:30am 15.4 10.7 5.3 51 4.8 SE 19 26 10 14 1019.8 1019.6 0.0
29/08:00am 14.3 9.5 5.7 56 4.1 SSE 20 26 11 14 1019.6 1019.4 0.0
29/07:30am 13.3 9.3 6.6 64 3.2 S 17 24 9 13 1019.3 1019.1 0.0
29/07:00am 12.8 8.8 6.6 66 3.0 S 17 22 9 12 1018.8 1018.6 0.0
29/06:30am 12.5 8.8 6.3 66 3.0 S 15 20 8 11 1018.4 1018.2 0.0
29/06:00am 12.1 9.2 6.6 69 2.6 S 11 17 6 9 1018.2 1018.0 0.0
29/05:30am 9.9 7.8 5.7 75 1.9 WSW 6 7 3 4 1017.9 1017.7 0.0
29/05:00am 9.7 8.6 4.9 72 2.2 CALM 0 6 0 3 1017.5 1017.3 0.0
29/04:30am 10.3 8.0 5.5 72 2.2 NW 7 7 4 4 1017.3 1017.1 0.0
29/04:00am 10.8 8.7 5.6 70 2.4 NW 6 9 3 5 1016.9 1016.7 0.0
29/03:30am 11.6 9.5 5.7 67 2.8 WNW 6 6 3 3 1016.7 1016.5 0.0
29/03:00am 12.4 10.2 6.2 66 2.9 W 7 9 4 5 1016.5 1016.3 0.0
29/02:30am 13.2 10.6 6.1 62 3.4 WSW 9 11 5 6 1016.5 1016.3 0.0
29/02:00am 14.2 11.5 5.8 57 4.0 SW 9 13 5 7 1016.4 1016.2 0.0
29/01:30am 14.5 11.9 6.1 57 4.1 SW 9 13 5 7 1016.6 1016.4 0.0
29/01:00am 13.6 12.2 5.3 57 3.9 WSW 2 7 1 4 1016.7 1016.5 0.0
29/12:30am 14.8 12.4 5.1 52 4.6 SW 7 9 4 5 1016.8 1016.6 0.0
29/12:00am 15.5 12.8 5.7 52 4.7 WSW 9 11 5 6 1016.8 1016.6 0.0
 
Date/Time
EDT
Temp
°C
App
Temp
°C
Dew
Point
Rel
Hum
%
Delta-T
°C
Wind Press
QNH
hPa
Press
MSL
hPa
Rain
since 9 am
mm
Dir
 
Spd
km/h
Gust
km/h
Spd
kts
Gust
kts
28/11:30pm 16.4 13.2 5.1 47 5.4 SW 11 15 6 8 1016.7 1016.5 0.0

Other Formats:

Comma delimited format used in spreadsheet applications
http://www.bom.gov.au/fwo/IDN60801/IDN60801.95704.axf

JavaScript Object Notation format (JSON) in row-major order
http://www.bom.gov.au/fwo/IDN60801/IDN60801.95704.json